createdAt,value
2023-01-02T00:01:32.906Z,16.90
2023-01-02T00:04:05.463Z,25.15
2023-01-02T00:06:39.226Z,18.73
2023-01-02T00:09:11.692Z,21.85
2023-01-02T00:11:44.036Z,19.67
2023-01-02T00:14:16.365Z,15.60
2023-01-02T00:16:48.779Z,24.63
2023-01-02T00:19:21.272Z,20.83
2023-01-02T00:21:54.678Z,16.08
2023-01-02T00:24:27.029Z,16.75
2023-01-02T00:26:59.450Z,17.42
2023-01-02T00:29:31.837Z,14.23
2023-01-02T00:32:04.671Z,15.98
2023-01-02T00:34:37.025Z,18.77
2023-01-02T00:37:10.103Z,22.75
2023-01-02T00:39:42.435Z,19.52
2023-01-02T00:42:14.828Z,15.50
2023-01-02T00:44:47.109Z,22.52
2023-01-02T00:47:19.492Z,22.80
2023-01-02T00:49:51.761Z,21.77
2023-01-02T00:52:24.901Z,22.00
2023-01-02T00:54:57.232Z,25.25
2023-01-02T00:57:29.695Z,20.75
2023-01-02T01:00:02.304Z,24.10
2023-01-02T01:02:36.112Z,20.23
2023-01-02T01:05:08.954Z,24.40
2023-01-02T01:07:42.043Z,19.75
2023-01-02T01:10:14.477Z,14.07
2023-01-02T01:12:46.910Z,14.73
2023-01-02T01:15:19.354Z,18.15
2023-01-02T01:17:51.790Z,13.90
2023-01-02T01:20:24.337Z,19.88
2023-01-02T01:22:57.373Z,15.95
2023-01-02T01:25:29.682Z,18.85
2023-01-02T01:28:02.121Z,19.08
2023-01-02T01:30:34.436Z,24.30
2023-01-02T01:33:06.833Z,18.55
2023-01-02T01:35:39.208Z,15.15
2023-01-02T01:38:12.310Z,14.75
2023-01-02T01:40:44.629Z,10.73
2023-01-02T01:43:16.949Z,9.77
2023-01-02T01:45:49.442Z,8.75
2023-01-02T01:48:21.856Z,6.75
2023-01-02T01:50:54.287Z,8.95
2023-01-02T01:53:27.339Z,10.85
2023-01-02T01:56:03.956Z,9.75
2023-01-02T01:58:42.342Z,7.32
2023-01-02T02:01:17.115Z,7.35
2023-01-02T02:03:50.828Z,8.70
2023-01-02T02:06:23.266Z,11.45
2023-01-02T02:09:01.469Z,7.68
2023-01-02T02:11:35.361Z,11.13
2023-01-02T02:14:07.789Z,8.45
2023-01-02T02:16:49.440Z,9.32
2023-01-02T02:19:58.873Z,9.73
2023-01-02T02:23:12.929Z,8.95
2023-01-02T02:26:23.287Z,8.23
2023-01-02T02:29:28.581Z,10.77
2023-01-02T02:32:10.463Z,8.63
2023-01-02T02:34:48.657Z,6.45
2023-01-02T02:37:28.656Z,7.47
2023-01-02T02:40:13.082Z,4.95
2023-01-02T02:42:59.517Z,6.10
2023-01-02T02:45:45.376Z,5.05
2023-01-02T02:48:26.152Z,2.90
2023-01-02T02:51:05.281Z,5.68
2023-01-02T02:53:42.743Z,4.72
2023-01-02T02:56:17.605Z,4.80
2023-01-02T02:58:50.975Z,4.45
2023-01-02T03:01:30.664Z,5.50
2023-01-02T03:04:15.662Z,3.08
2023-01-02T03:07:04.270Z,3.95
2023-01-02T03:09:44.651Z,4.00
2023-01-02T03:12:31.858Z,5.78
2023-01-02T03:15:14.285Z,7.60
2023-01-02T03:18:02.414Z,9.30
2023-01-02T03:20:38.883Z,7.90
2023-01-02T03:23:18.297Z,9.00
2023-01-02T03:25:51.757Z,13.65
2023-01-02T03:28:26.776Z,11.98
2023-01-02T03:31:02.466Z,72.18
2023-01-02T03:33:42.544Z,18.77
2023-01-02T03:36:19.718Z,9.65
2023-01-02T03:38:58.996Z,9.80
2023-01-02T03:41:35.715Z,8.50
2023-01-02T03:44:10.441Z,26.77
2023-01-02T03:46:48.224Z,23.63
2023-01-02T03:49:24.587Z,12.02
2023-01-02T03:51:57.666Z,8.65
2023-01-02T03:54:30.889Z,13.02
2023-01-02T03:57:14.071Z,12.52
2023-01-02T03:59:55.017Z,13.05
2023-01-02T04:02:34.135Z,12.05
2023-01-02T04:05:14.524Z,20.58
2023-01-02T04:07:57.306Z,10.40
2023-01-02T04:10:30.737Z,9.80
2023-01-02T04:13:09.646Z,15.85
2023-01-02T04:15:45.522Z,9.02
2023-01-02T04:18:23.249Z,9.65
2023-01-02T04:21:01.621Z,9.90
2023-01-02T04:23:40.155Z,7.55
2023-01-02T04:26:18.349Z,12.68
2023-01-02T04:28:51.309Z,9.15
2023-01-02T04:31:32.137Z,9.98
2023-01-02T04:34:09.032Z,10.65
2023-01-02T04:36:41.750Z,8.50
2023-01-02T04:39:14.749Z,9.23
2023-01-02T04:41:47.207Z,10.40
2023-01-02T04:44:19.534Z,8.48
2023-01-02T04:46:51.923Z,4.47
2023-01-02T04:49:26.039Z,5.47
2023-01-02T04:51:58.419Z,4.68
2023-01-02T04:54:31.380Z,5.75
2023-01-02T04:57:04.042Z,7.60
2023-01-02T04:59:36.344Z,8.93
2023-01-02T05:02:08.931Z,12.35
2023-01-02T05:04:41.443Z,7.07
2023-01-02T05:07:13.807Z,9.30
2023-01-02T05:09:46.792Z,7.15
2023-01-02T05:12:19.241Z,7.38
2023-01-02T05:14:51.619Z,7.43
2023-01-02T05:17:23.999Z,5.68
2023-01-02T05:19:56.333Z,4.82
2023-01-02T05:22:46.638Z,7.97
2023-01-02T05:25:19.720Z,8.38
2023-01-02T05:27:53.637Z,15.40
2023-01-02T05:30:26.047Z,17.77
2023-01-02T05:32:58.769Z,20.98
2023-01-02T05:35:33.214Z,19.40
2023-01-02T05:38:05.930Z,16.77
2023-01-02T05:40:38.953Z,13.13
2023-01-02T05:43:11.334Z,7.78
2023-01-02T05:45:43.726Z,7.05
2023-01-02T05:48:16.107Z,5.45
2023-01-02T05:50:48.380Z,8.13
2023-01-02T05:53:20.771Z,7.10
2023-01-02T05:55:53.740Z,6.47
2023-01-02T05:58:26.093Z,5.03
2023-01-02T06:01:06.446Z,4.32
2023-01-02T06:03:39.068Z,5.05
2023-01-02T06:06:11.470Z,6.78
2023-01-02T06:08:44.068Z,8.80
2023-01-02T06:11:17.336Z,7.95
2023-01-02T06:13:49.624Z,10.98
2023-01-02T06:16:23.486Z,11.07
2023-01-02T06:18:56.003Z,10.38
2023-01-02T06:21:28.341Z,16.88
2023-01-02T06:24:00.768Z,17.02
2023-01-02T06:26:35.352Z,25.50
2023-01-02T06:29:08.919Z,23.67
2023-01-02T06:31:43.539Z,16.13
2023-01-02T06:34:20.136Z,18.63
2023-01-02T06:36:52.484Z,20.48
2023-01-02T06:39:24.875Z,20.83
2023-01-02T06:41:57.919Z,24.10
2023-01-02T06:44:30.330Z,23.23
2023-01-02T06:47:02.664Z,46.15
2023-01-02T06:49:35.063Z,42.80
2023-01-02T06:52:07.363Z,29.92
2023-01-02T06:54:39.801Z,20.02
2023-01-02T06:57:12.847Z,17.63
2023-01-02T06:59:45.307Z,10.55
2023-01-02T07:02:17.678Z,12.82
2023-01-02T07:04:50.192Z,21.45
2023-01-02T07:07:22.504Z,23.33
2023-01-02T07:09:56.490Z,24.33
2023-01-02T07:12:29.461Z,27.25
2023-01-02T07:15:02.216Z,29.55
2023-01-02T07:17:34.580Z,22.52
2023-01-02T07:20:07.809Z,18.27
2023-01-02T07:22:40.159Z,29.48
2023-01-02T07:25:12.533Z,43.63
2023-01-02T07:27:45.815Z,36.60
2023-01-02T07:30:18.270Z,26.25
2023-01-02T07:32:53.080Z,27.25
2023-01-02T07:35:25.481Z,30.65
2023-01-02T07:37:57.822Z,21.27
2023-01-02T07:40:32.254Z,21.30
2023-01-02T07:43:05.597Z,29.17
2023-01-02T07:45:38.039Z,36.95
2023-01-02T07:48:10.483Z,38.28
2023-01-02T07:50:42.859Z,57.53
2023-01-02T07:53:15.283Z,29.92
2023-01-02T07:55:53.162Z,23.65
2023-01-02T07:58:27.474Z,23.02
2023-01-02T08:01:06.051Z,19.67
2023-01-02T08:03:38.883Z,18.77
2023-01-02T08:06:13.121Z,26.35
2023-01-02T08:08:45.468Z,23.38
2023-01-02T08:11:20.330Z,23.55
2023-01-02T08:13:53.312Z,23.80
2023-01-02T08:16:25.827Z,23.35
2023-01-02T08:18:58.145Z,29.42
2023-01-02T08:21:30.553Z,26.02
2023-01-02T08:24:03.036Z,27.83
2023-01-02T08:26:35.403Z,25.90
2023-01-02T08:29:08.741Z,25.83
2023-01-02T08:31:43.849Z,23.70
2023-01-02T08:34:16.936Z,34.22
2023-01-02T08:36:49.301Z,24.05
2023-01-02T08:39:21.624Z,23.45
2023-01-02T08:41:53.993Z,25.42
2023-01-02T08:44:27.044Z,26.40
2023-01-02T08:46:59.427Z,20.65
2023-01-02T08:49:31.828Z,19.00
2023-01-02T08:52:04.511Z,32.38
2023-01-02T08:54:36.841Z,22.40
2023-01-02T08:57:09.248Z,20.23
2023-01-02T08:59:42.237Z,20.05
2023-01-02T09:02:15.169Z,13.95
2023-01-02T09:04:47.659Z,16.98
2023-01-02T09:07:20.047Z,19.55
2023-01-02T09:09:52.421Z,15.93
2023-01-02T09:12:24.859Z,13.95
2023-01-02T09:14:57.844Z,18.55
2023-01-02T09:17:30.589Z,15.32
2023-01-02T09:20:03.453Z,15.45
2023-01-02T09:22:36.421Z,14.68
2023-01-02T09:25:09.269Z,12.85
2023-01-02T09:27:41.694Z,14.35
2023-01-02T09:30:15.227Z,14.70
2023-01-02T09:32:48.410Z,15.40
2023-01-02T09:35:20.728Z,13.48
2023-01-02T09:37:53.096Z,12.75
2023-01-02T09:40:26.625Z,14.88
2023-01-02T09:42:59.844Z,12.43
2023-01-02T09:45:33.593Z,12.15
2023-01-02T09:48:06.245Z,14.13
2023-01-02T09:50:38.925Z,13.27
2023-01-02T09:53:13.519Z,13.10
2023-01-02T09:55:54.480Z,13.90
2023-01-02T09:58:37.073Z,17.23
2023-01-02T10:01:18.485Z,11.43
2023-01-02T10:03:59.763Z,13.07
2023-01-02T10:06:39.594Z,17.13
2023-01-02T10:09:21.714Z,13.77
2023-01-02T10:12:03.754Z,11.40
2023-01-02T10:14:50.702Z,9.25
2023-01-02T10:17:25.665Z,14.05
2023-01-02T10:20:01.639Z,12.82
2023-01-02T10:22:41.486Z,14.13
2023-01-02T10:25:21.584Z,12.95
2023-01-02T10:28:02.043Z,13.90
2023-01-02T10:30:41.304Z,16.42
2023-01-02T10:33:20.497Z,12.45
2023-01-02T10:35:56.552Z,14.85
2023-01-02T10:38:35.107Z,13.27
2023-01-02T10:41:08.844Z,15.45
2023-01-02T10:43:41.181Z,11.57
2023-01-02T10:46:13.598Z,12.35
2023-01-02T10:48:52.073Z,8.93
2023-01-02T10:51:26.687Z,9.57
2023-01-02T10:54:00.862Z,9.98
2023-01-02T10:56:35.963Z,14.00
2023-01-02T10:59:20.440Z,11.10
2023-01-02T11:01:55.512Z,17.52
2023-01-02T11:04:30.552Z,12.52
2023-01-02T11:07:03.767Z,11.90
2023-01-02T11:09:36.149Z,8.25
2023-01-02T11:12:11.003Z,13.05
2023-01-02T11:14:43.287Z,18.13
2023-01-02T11:17:17.401Z,8.90
2023-01-02T11:19:52.785Z,10.52
2023-01-02T11:22:35.595Z,11.95
2023-01-02T11:25:20.378Z,13.27
2023-01-02T11:27:57.408Z,9.65
2023-01-02T11:30:35.664Z,14.27
2023-01-02T11:33:18.805Z,17.48
2023-01-02T11:35:54.303Z,13.52
2023-01-02T11:38:39.504Z,16.58
2023-01-02T11:41:45.485Z,17.38
2023-01-02T11:44:24.496Z,9.40
2023-01-02T11:46:58.525Z,12.35
2023-01-02T11:49:37.721Z,9.85
2023-01-02T11:52:15.848Z,18.88
2023-01-02T11:55:02.958Z,10.75
2023-01-02T11:57:42.408Z,11.35
2023-01-02T12:00:18.501Z,9.80
2023-01-02T12:02:52.260Z,11.68
2023-01-02T12:05:35.598Z,10.98
2023-01-02T12:08:18.048Z,10.95
2023-01-02T12:11:04.704Z,10.20
2023-01-02T12:13:52.760Z,7.97
2023-01-02T12:16:34.641Z,7.25
2023-01-02T12:19:23.975Z,7.38
2023-01-02T12:22:08.079Z,9.23
2023-01-02T12:24:53.832Z,8.80
2023-01-02T12:27:34.730Z,8.68
2023-01-02T12:30:13.346Z,6.70
2023-01-02T12:33:06.853Z,9.18
2023-01-02T12:36:24.207Z,9.75
2023-01-02T12:39:13.133Z,8.25
2023-01-02T12:42:01.912Z,5.20
2023-01-02T12:44:56.155Z,10.68
2023-01-02T12:47:41.935Z,10.73
2023-01-02T12:50:30.625Z,8.40
2023-01-02T12:53:19.376Z,9.97
2023-01-02T12:56:04.779Z,5.97
2023-01-02T12:58:49.236Z,7.88
2023-01-02T13:01:28.283Z,9.75
2023-01-02T13:04:04.711Z,8.52
2023-01-02T13:06:47.716Z,7.57
2023-01-02T13:09:26.837Z,10.48
2023-01-02T13:12:04.495Z,10.15
2023-01-02T13:14:41.360Z,8.38
2023-01-02T13:17:33.800Z,12.85
2023-01-02T13:20:14.378Z,9.23
2023-01-02T13:22:56.010Z,12.88
2023-01-02T13:25:30.846Z,11.43
2023-01-02T13:28:05.264Z,13.27
2023-01-02T13:30:43.907Z,11.95
2023-01-02T13:33:27.771Z,11.32
2023-01-02T13:36:02.673Z,11.05
2023-01-02T13:38:36.235Z,13.52
2023-01-02T13:41:14.614Z,11.32
2023-01-02T13:43:53.262Z,16.20
2023-01-02T13:47:02.182Z,15.70
2023-01-02T13:49:22.317Z,15.52
2023-01-02T13:51:59.432Z,17.48
2023-01-02T13:54:36.428Z,13.32
2023-01-02T13:57:17.811Z,14.23
2023-01-02T13:59:56.927Z,12.55
2023-01-02T14:02:30.200Z,14.18
2023-01-02T14:05:41.004Z,14.35
2023-01-02T14:08:23.966Z,13.27
2023-01-02T14:10:59.706Z,18.25
2023-01-02T14:13:36.001Z,18.77
2023-01-02T14:16:35.314Z,19.50
2023-01-02T14:19:21.743Z,15.95
2023-01-02T14:22:05.456Z,20.92
2023-01-02T14:24:41.028Z,17.13
2023-01-02T14:27:23.690Z,16.38
2023-01-02T14:29:59.048Z,11.57
2023-01-02T14:32:37.741Z,16.50
2023-01-02T14:35:28.387Z,21.20
2023-01-02T14:38:11.733Z,15.43
2023-01-02T14:40:45.707Z,17.08
2023-01-02T14:43:30.639Z,15.93
2023-01-02T14:46:10.026Z,13.45
2023-01-02T14:48:51.545Z,11.05
2023-01-02T14:51:31.733Z,10.65
2023-01-02T14:54:13.222Z,27.08
2023-01-02T14:56:47.964Z,16.00
2023-01-02T14:59:26.856Z,20.88
2023-01-02T15:02:04.538Z,19.75
2023-01-02T15:04:45.105Z,27.13
2023-01-02T15:07:27.171Z,34.05
2023-01-02T15:10:03.390Z,27.13
2023-01-02T15:13:03.374Z,40.08
2023-01-02T15:15:40.254Z,44.45
2023-01-02T15:18:20.111Z,41.00
2023-01-02T15:20:54.395Z,52.60
2023-01-02T15:23:27.513Z,33.58
2023-01-02T15:26:31.083Z,25.33
2023-01-02T15:28:57.865Z,27.77
2023-01-02T15:31:30.713Z,36.65
2023-01-02T15:34:03.053Z,59.25
2023-01-02T15:36:38.082Z,71.03
2023-01-02T15:39:18.001Z,73.10
2023-01-02T15:41:54.636Z,80.25
2023-01-02T15:44:47.752Z,83.35
2023-01-02T15:47:27.330Z,69.32
2023-01-02T15:50:04.912Z,74.13
2023-01-02T15:52:39.229Z,59.83
2023-01-02T15:55:17.289Z,53.88
2023-01-02T15:57:52.628Z,43.70
2023-01-02T16:00:34.777Z,38.58
2023-01-02T16:03:08.811Z,40.80
2023-01-02T16:05:48.877Z,45.92
2023-01-02T16:08:24.216Z,37.60
2023-01-02T16:11:00.841Z,33.50
2023-01-02T16:13:59.125Z,45.10
2023-01-02T16:16:49.395Z,51.78
2023-01-02T16:19:26.876Z,64.50
2023-01-02T16:22:07.889Z,58.17
2023-01-02T16:24:44.642Z,58.95
2023-01-02T16:27:25.111Z,61.88
2023-01-02T16:29:58.015Z,50.58
2023-01-02T16:32:32.218Z,59.45
2023-01-02T16:35:19.486Z,71.93
2023-01-02T16:37:57.275Z,69.82
2023-01-02T16:41:00.350Z,49.13
2023-01-02T16:43:42.817Z,38.15
2023-01-02T16:46:15.925Z,30.60
2023-01-02T16:48:48.352Z,42.63
2023-01-02T16:51:20.834Z,40.60
2023-01-02T16:53:53.170Z,39.70
2023-01-02T16:56:25.573Z,37.72
2023-01-02T16:58:59.497Z,36.83
2023-01-02T17:01:32.004Z,37.95
2023-01-02T17:04:04.607Z,60.70
2023-01-02T17:06:36.991Z,56.80
2023-01-02T17:09:09.311Z,60.40
2023-01-02T17:11:59.427Z,71.57
2023-01-02T17:14:33.353Z,72.85
2023-01-02T17:17:05.812Z,70.70
2023-01-02T17:19:38.208Z,67.82
2023-01-02T17:22:10.643Z,85.15
2023-01-02T17:24:42.950Z,79.13
2023-01-02T17:27:15.517Z,113.40
2023-01-02T17:29:48.529Z,89.25
2023-01-02T17:32:21.020Z,86.50
2023-01-02T17:34:53.351Z,80.68
2023-01-02T17:37:25.784Z,73.72
2023-01-02T17:39:58.812Z,65.35
2023-01-02T17:42:31.391Z,86.50
2023-01-02T17:45:05.469Z,92.55
2023-01-02T17:50:31.782Z,74.93
2023-01-02T17:53:04.164Z,90.32
2023-01-02T17:55:36.522Z,113.18
2023-01-02T17:58:08.965Z,125.32
2023-01-02T18:00:43.563Z,117.68
2023-01-02T18:03:16.038Z,107.00
2023-01-02T18:05:50.583Z,102.47
2023-01-02T18:08:25.687Z,80.53
2023-01-02T18:10:57.999Z,96.60
2023-01-02T18:13:32.875Z,99.15
2023-01-02T18:16:13.679Z,105.55
2023-01-02T18:18:46.382Z,106.75
2023-01-02T18:21:21.292Z,86.10
2023-01-02T18:23:57.145Z,89.03
2023-01-02T18:26:30.645Z,93.63
2023-01-02T18:29:10.071Z,79.63
2023-01-02T18:31:46.413Z,72.32
2023-01-02T18:34:47.120Z,86.68
2023-01-02T18:37:19.364Z,183.18
2023-01-02T18:39:51.933Z,193.63
2023-01-02T18:42:26.969Z,236.70
2023-01-02T18:45:00.073Z,197.13
2023-01-02T18:47:36.653Z,344.77
2023-01-02T18:50:30.966Z,253.82
2023-01-02T18:53:15.517Z,194.95
2023-01-02T18:55:50.128Z,135.13
2023-01-02T18:58:36.000Z,96.95
2023-01-02T19:01:22.649Z,129.65
2023-01-02T19:04:22.092Z,87.88
2023-01-02T19:07:17.880Z,157.65
2023-01-02T19:09:50.282Z,182.02
2023-01-02T19:12:43.596Z,105.30
2023-01-02T19:15:42.150Z,97.07
2023-01-02T19:18:23.689Z,112.20
2023-01-02T19:21:03.335Z,131.27
2023-01-02T19:26:23.499Z,99.82
2023-01-02T19:29:00.107Z,92.65
2023-01-02T19:31:41.465Z,78.10
2023-01-02T19:34:27.131Z,60.25
2023-01-02T19:37:23.889Z,84.43
2023-01-02T19:39:58.390Z,89.82
2023-01-02T19:42:31.614Z,85.60
2023-01-02T19:45:06.844Z,81.40
2023-01-02T19:47:39.616Z,76.78
2023-01-02T19:50:14.310Z,74.05
2023-01-02T19:52:47.741Z,106.35
2023-01-02T19:55:20.161Z,88.05
2023-01-02T19:57:52.560Z,82.10
2023-01-02T20:00:24.880Z,121.95
2023-01-02T20:02:57.364Z,128.38
2023-01-02T20:05:30.185Z,110.30
2023-01-02T20:08:03.329Z,123.82
2023-01-02T20:10:35.934Z,119.28
2023-01-02T20:13:08.344Z,98.00
2023-01-02T20:15:40.712Z,61.63
2023-01-02T20:18:17.216Z,85.80
2023-01-02T20:20:49.589Z,59.78
2023-01-02T20:23:22.659Z,68.32
2023-01-02T20:25:55.012Z,74.90
2023-01-02T20:28:27.392Z,120.72
2023-01-02T20:30:59.857Z,109.35
2023-01-02T20:33:32.738Z,66.72
2023-01-02T20:36:11.352Z,73.25
2023-01-02T20:38:46.396Z,60.90
2023-01-02T20:41:18.874Z,68.65
2023-01-02T20:43:51.243Z,63.90
2023-01-02T20:46:23.696Z,61.58
2023-01-02T20:48:56.152Z,57.47
2023-01-02T20:51:29.529Z,40.53
2023-01-02T20:54:03.690Z,33.28
2023-01-02T20:56:36.060Z,49.05
2023-01-02T20:59:08.456Z,41.08
2023-01-02T21:01:41.794Z,38.47
2023-01-02T21:04:18.652Z,28.58
2023-01-02T21:06:53.116Z,23.67
2023-01-02T21:09:26.216Z,40.42
2023-01-02T21:11:58.581Z,48.13
2023-01-02T21:14:37.115Z,36.53
2023-01-02T21:17:09.793Z,56.73
2023-01-02T21:19:42.160Z,57.03
2023-01-02T21:22:14.475Z,55.20
2023-01-02T21:24:47.561Z,59.80
2023-01-02T21:27:19.946Z,107.15
2023-01-02T21:29:52.335Z,110.93
2023-01-02T21:32:24.683Z,81.40
2023-01-02T21:34:57.057Z,47.30
2023-01-02T21:37:29.418Z,50.38
2023-01-02T21:40:04.998Z,31.52
2023-01-02T21:42:44.497Z,21.63
2023-01-02T21:45:17.552Z,31.23
2023-01-02T21:47:50.143Z,27.05
2023-01-02T21:50:23.175Z,27.83
2023-01-02T21:52:55.513Z,32.88
2023-01-02T21:55:28.522Z,31.05
2023-01-02T21:58:16.329Z,32.83
2023-01-02T22:00:50.924Z,27.45
2023-01-02T22:03:23.403Z,21.88
2023-01-02T22:05:55.899Z,26.38
2023-01-02T22:08:28.188Z,21.88
2023-01-02T22:11:16.124Z,32.22
2023-01-02T22:13:48.466Z,33.67
2023-01-02T22:16:20.913Z,50.65
2023-01-02T22:18:53.253Z,33.70
2023-01-02T22:21:25.665Z,47.13
2023-01-02T22:23:58.162Z,45.83
2023-01-02T22:26:31.748Z,62.42
2023-01-02T22:29:04.966Z,43.20
2023-01-02T22:31:37.812Z,43.47
2023-01-02T22:34:10.668Z,42.58
2023-01-02T22:36:43.098Z,38.80
2023-01-02T22:39:27.978Z,34.85
2023-01-02T22:42:49.325Z,29.70
2023-01-02T22:45:18.734Z,28.55
2023-01-02T22:47:51.592Z,27.13
2023-01-02T22:50:26.664Z,20.98
2023-01-02T22:52:59.967Z,26.15
2023-01-02T22:55:32.793Z,25.60
2023-01-02T22:58:06.187Z,29.02
2023-01-02T23:00:38.960Z,21.00
2023-01-02T23:03:12.993Z,21.05
2023-01-02T23:05:45.360Z,16.65
2023-01-02T23:08:18.701Z,18.70
2023-01-02T23:10:51.065Z,19.40
2023-01-02T23:13:24.328Z,22.30
2023-01-02T23:16:14.996Z,13.18
2023-01-02T23:19:05.893Z,20.95
2023-01-02T23:21:39.545Z,25.50
2023-01-02T23:24:13.499Z,18.27
2023-01-02T23:26:49.823Z,17.00
2023-01-02T23:29:24.956Z,13.55
2023-01-02T23:31:57.397Z,16.90
2023-01-02T23:34:30.156Z,12.50
2023-01-02T23:37:03.018Z,16.83
2023-01-02T23:39:35.379Z,16.58
2023-01-02T23:42:07.700Z,21.05
2023-01-02T23:44:41.306Z,27.60
2023-01-02T23:47:18.885Z,27.85
2023-01-02T23:49:51.876Z,18.52
2023-01-02T23:52:24.181Z,20.67
2023-01-02T23:54:56.574Z,13.43
2023-01-02T23:57:28.879Z,11.57
